createdAt,value
2022-11-03T00:01:33.986Z,11.48
2022-11-03T00:04:00.499Z,11.42
2022-11-03T00:06:26.961Z,11.52
2022-11-03T00:08:53.330Z,11.49
2022-11-03T00:11:19.695Z,11.48
2022-11-03T00:13:46.054Z,11.41
2022-11-03T00:16:12.693Z,11.03
2022-11-03T00:18:39.229Z,10.95
2022-11-03T00:21:10.138Z,10.99
2022-11-03T00:23:41.181Z,11.01
2022-11-03T00:26:16.542Z,11.23
2022-11-03T00:28:44.767Z,10.84
2022-11-03T00:31:16.913Z,10.85
2022-11-03T00:33:43.926Z,10.85
2022-11-03T00:36:12.674Z,10.86
2022-11-03T00:38:39.042Z,10.84
2022-11-03T00:41:06.201Z,10.75
2022-11-03T00:43:34.113Z,10.79
2022-11-03T00:46:01.157Z,10.81
2022-11-03T00:48:30.416Z,10.76
2022-11-03T00:51:10.367Z,10.71
2022-11-03T00:53:47.632Z,10.65
2022-11-03T00:56:22.235Z,10.72
2022-11-03T00:58:49.598Z,10.62
2022-11-03T01:01:24.616Z,10.73
2022-11-03T01:04:12.194Z,10.62
2022-11-03T01:06:49.963Z,10.65
2022-11-03T01:09:21.723Z,10.62
2022-11-03T01:11:58.419Z,10.79
2022-11-03T01:14:30.953Z,10.83
2022-11-03T01:16:57.673Z,10.78
2022-11-03T01:19:25.212Z,10.88
2022-11-03T01:21:52.929Z,10.91
2022-11-03T01:24:19.728Z,11.01
2022-11-03T01:26:46.103Z,10.95
2022-11-03T01:29:12.472Z,11.05
2022-11-03T01:31:39.000Z,11.17
2022-11-03T01:34:05.431Z,11.22
2022-11-03T01:36:31.794Z,11.30
2022-11-03T01:38:58.216Z,11.27
2022-11-03T01:41:27.927Z,11.31
2022-11-03T01:44:17.163Z,11.32
2022-11-03T01:47:19.162Z,11.29
2022-11-03T01:49:56.949Z,11.33
2022-11-03T01:52:33.879Z,11.35
2022-11-03T01:55:13.979Z,11.36
2022-11-03T01:57:45.380Z,11.37
2022-11-03T02:00:12.343Z,11.33
2022-11-03T02:02:38.726Z,11.32
2022-11-03T02:05:06.100Z,11.38
2022-11-03T02:07:37.378Z,11.33
2022-11-03T02:10:04.290Z,11.45
2022-11-03T02:12:30.825Z,11.48
2022-11-03T02:15:08.506Z,11.34
2022-11-03T02:17:36.135Z,11.38
2022-11-03T02:20:09.815Z,11.41
2022-11-03T02:23:01.576Z,11.34
2022-11-03T02:25:35.205Z,11.35
2022-11-03T02:28:02.794Z,11.30
2022-11-03T02:30:52.912Z,11.36
2022-11-03T02:33:30.158Z,11.35
2022-11-03T02:36:02.134Z,11.43
2022-11-03T02:38:30.603Z,11.34
2022-11-03T02:41:00.739Z,11.30
2022-11-03T02:43:28.050Z,11.32
2022-11-03T02:45:55.241Z,11.30
2022-11-03T02:48:21.791Z,11.46
2022-11-03T02:50:49.166Z,11.81
2022-11-03T02:53:16.401Z,11.92
2022-11-03T02:55:56.183Z,11.89
2022-11-03T02:58:28.461Z,11.81
2022-11-03T03:00:55.682Z,11.91
2022-11-03T03:03:27.282Z,11.95
2022-11-03T03:05:58.493Z,11.90
2022-11-03T03:08:26.061Z,11.82
2022-11-03T03:10:53.142Z,11.82
2022-11-03T03:13:20.491Z,11.85
2022-11-03T03:15:57.372Z,11.84
2022-11-03T03:18:31.253Z,11.79
2022-11-03T03:21:04.316Z,11.68
2022-11-03T03:23:34.160Z,11.77
2022-11-03T03:26:05.293Z,11.83
2022-11-03T03:28:42.970Z,11.81
2022-11-03T03:31:11.893Z,11.89
2022-11-03T03:33:40.755Z,11.92
2022-11-03T03:36:13.592Z,11.90
2022-11-03T03:38:44.125Z,11.79
2022-11-03T03:41:21.627Z,11.69
2022-11-03T03:43:50.311Z,11.75
2022-11-03T03:46:17.986Z,11.78
2022-11-03T03:48:44.474Z,11.63
2022-11-03T03:51:12.599Z,11.74
2022-11-03T03:53:38.989Z,11.73
2022-11-03T03:56:05.847Z,11.67
2022-11-03T03:58:32.327Z,11.72
2022-11-03T04:00:58.733Z,11.79
2022-11-03T04:03:26.749Z,11.66
2022-11-03T04:05:55.910Z,11.76
2022-11-03T04:08:22.504Z,11.73
2022-11-03T04:11:07.274Z,11.27
2022-11-03T04:13:52.576Z,11.15
2022-11-03T04:16:37.375Z,11.60
2022-11-03T04:19:22.480Z,11.61
2022-11-03T04:22:07.361Z,11.46
2022-11-03T04:24:33.816Z,11.16
2022-11-03T04:27:04.877Z,11.12
2022-11-03T04:29:32.350Z,11.12
2022-11-03T04:31:59.577Z,11.05
2022-11-03T04:34:25.949Z,11.01
2022-11-03T04:36:52.314Z,11.06
2022-11-03T04:39:19.758Z,11.08
2022-11-03T04:41:46.341Z,11.12
2022-11-03T04:44:16.715Z,11.10
2022-11-03T04:46:44.026Z,11.07
2022-11-03T04:49:13.831Z,11.10
2022-11-03T04:51:40.856Z,11.03
2022-11-03T04:54:13.987Z,11.11
2022-11-03T04:56:40.754Z,11.15
2022-11-03T04:59:14.595Z,11.24
2022-11-03T05:01:41.148Z,11.20
2022-11-03T05:04:18.297Z,11.11
2022-11-03T05:06:51.404Z,11.11
2022-11-03T05:09:21.357Z,11.15
2022-11-03T05:11:47.791Z,11.20
2022-11-03T05:14:23.215Z,11.24
2022-11-03T05:16:53.463Z,11.21
2022-11-03T05:19:27.489Z,11.28
2022-11-03T05:21:56.427Z,11.35
2022-11-03T05:24:26.628Z,11.31
2022-11-03T05:26:54.658Z,11.28
2022-11-03T05:29:24.042Z,11.21
2022-11-03T05:31:52.315Z,11.33
2022-11-03T05:34:31.627Z,11.59
2022-11-03T05:37:25.078Z,11.77
2022-11-03T05:39:55.489Z,11.85
2022-11-03T05:42:35.026Z,11.83
2022-11-03T05:45:10.667Z,11.97
2022-11-03T05:47:38.349Z,11.81
2022-11-03T05:50:21.479Z,11.89
2022-11-03T05:52:49.230Z,11.89
2022-11-03T05:55:24.852Z,11.91
2022-11-03T05:57:51.424Z,11.95
2022-11-03T06:00:33.485Z,11.92
2022-11-03T06:03:00.312Z,11.91
2022-11-03T06:05:27.252Z,11.99
2022-11-03T06:07:55.929Z,11.88
2022-11-03T06:10:25.338Z,11.92
2022-11-03T06:12:54.714Z,11.81
2022-11-03T06:15:30.030Z,11.83
2022-11-03T06:17:57.262Z,11.82
2022-11-03T06:20:24.026Z,11.73
2022-11-03T06:22:52.984Z,11.83
2022-11-03T06:25:29.269Z,11.81
2022-11-03T06:27:59.960Z,11.85
2022-11-03T06:30:26.353Z,12.01
2022-11-03T06:32:54.678Z,11.93
2022-11-03T06:35:21.128Z,11.91
2022-11-03T06:37:47.579Z,11.91
2022-11-03T06:40:13.916Z,11.95
2022-11-03T06:42:40.316Z,11.88
2022-11-03T06:45:17.431Z,12.01
2022-11-03T06:47:43.841Z,11.89
2022-11-03T06:50:26.135Z,11.95
2022-11-03T06:52:54.181Z,12.07
2022-11-03T06:55:28.577Z,12.09
2022-11-03T06:58:00.620Z,12.12
2022-11-03T07:00:34.759Z,12.16
2022-11-03T07:03:08.154Z,12.13
2022-11-03T07:05:34.799Z,12.13
2022-11-03T07:08:03.939Z,12.04
2022-11-03T07:10:33.212Z,12.21
2022-11-03T07:13:07.425Z,12.22
2022-11-03T07:15:37.362Z,12.28
2022-11-03T07:18:05.722Z,12.29
2022-11-03T07:20:32.401Z,12.26
2022-11-03T07:23:01.342Z,12.33
2022-11-03T07:25:27.778Z,12.23
2022-11-03T07:27:57.229Z,12.34
2022-11-03T07:30:28.026Z,12.36
2022-11-03T07:32:59.463Z,12.41
2022-11-03T07:36:00.298Z,12.43
2022-11-03T07:38:23.094Z,12.63
2022-11-03T07:40:50.801Z,12.63
2022-11-03T07:43:20.146Z,12.73
2022-11-03T07:45:52.024Z,12.64
2022-11-03T07:48:20.014Z,12.64
2022-11-03T07:50:47.650Z,12.64
2022-11-03T07:53:23.292Z,12.63
2022-11-03T07:55:53.779Z,12.64
2022-11-03T07:58:37.694Z,12.78
2022-11-03T08:01:20.124Z,12.83
2022-11-03T08:03:47.493Z,12.86
2022-11-03T08:06:17.246Z,12.92
2022-11-03T08:08:46.269Z,12.91
2022-11-03T08:13:43.900Z,12.99
2022-11-03T08:16:10.277Z,13.13
2022-11-03T08:18:37.077Z,13.18
2022-11-03T08:21:03.524Z,13.27
2022-11-03T08:23:30.169Z,13.41
2022-11-03T08:25:56.777Z,13.51
2022-11-03T08:28:23.133Z,13.51
2022-11-03T08:30:49.509Z,13.70
2022-11-03T08:33:16.026Z,13.75
2022-11-03T08:35:42.403Z,13.62
2022-11-03T08:38:09.167Z,13.78
2022-11-03T08:40:35.776Z,13.79
2022-11-03T08:43:03.015Z,13.80
2022-11-03T08:45:30.138Z,13.90
2022-11-03T08:47:56.791Z,13.96
2022-11-03T08:50:23.407Z,13.90
2022-11-03T08:52:49.817Z,13.95
2022-11-03T08:55:16.240Z,14.01
2022-11-03T08:57:42.584Z,13.98
2022-11-03T09:00:09.913Z,13.98
2022-11-03T09:02:36.370Z,14.18
2022-11-03T09:05:03.642Z,14.29
2022-11-03T09:12:48.254Z,14.16
2022-11-03T09:15:14.626Z,14.23
2022-11-03T09:17:43.296Z,14.37
2022-11-03T09:20:12.342Z,14.48
2022-11-03T09:22:39.243Z,14.29
2022-11-03T09:25:06.178Z,14.48
2022-11-03T09:27:32.597Z,14.43
2022-11-03T09:30:12.892Z,14.49
2022-11-03T09:32:40.418Z,14.67
2022-11-03T09:35:08.457Z,14.69
2022-11-03T09:37:34.830Z,14.98
2022-11-03T09:40:01.232Z,15.09
2022-11-03T09:42:27.715Z,15.09
2022-11-03T09:44:54.972Z,15.22
2022-11-03T09:47:28.054Z,15.14
2022-11-03T09:50:04.318Z,15.34
2022-11-03T09:52:31.142Z,15.27
2022-11-03T09:54:59.519Z,15.16
2022-11-03T09:57:27.457Z,15.20
2022-11-03T09:59:54.161Z,15.17
2022-11-03T10:02:25.635Z,15.21
2022-11-03T10:04:52.962Z,15.34
2022-11-03T10:07:20.275Z,15.25
2022-11-03T10:09:49.701Z,15.30
2022-11-03T10:12:16.100Z,15.15
2022-11-03T10:14:44.052Z,15.10
2022-11-03T10:17:15.948Z,15.23
2022-11-03T10:19:43.573Z,15.21
2022-11-03T10:22:10.147Z,15.29
2022-11-03T10:24:36.508Z,15.44
2022-11-03T10:27:02.885Z,15.35
2022-11-03T10:29:29.231Z,15.49
2022-11-03T10:31:58.282Z,15.55
2022-11-03T10:34:28.620Z,15.56
2022-11-03T10:37:14.403Z,15.54
2022-11-03T10:39:40.777Z,15.56
2022-11-03T10:42:16.599Z,15.69
2022-11-03T10:44:42.948Z,15.67
2022-11-03T10:47:22.498Z,15.30
2022-11-03T10:49:48.914Z,15.34
2022-11-03T10:52:22.791Z,15.36
2022-11-03T10:54:54.244Z,15.57
2022-11-03T10:57:22.052Z,15.51
2022-11-03T10:59:50.277Z,15.56
2022-11-03T11:02:24.845Z,15.34
2022-11-03T11:04:59.207Z,15.40
2022-11-03T11:07:33.012Z,15.46
2022-11-03T11:10:06.710Z,15.10
2022-11-03T11:12:33.061Z,15.52
2022-11-03T11:15:01.460Z,15.52
2022-11-03T11:17:36.973Z,15.62
2022-11-03T11:20:18.808Z,15.52
2022-11-03T11:22:45.785Z,15.55
2022-11-03T11:25:12.208Z,15.48
2022-11-03T11:27:38.475Z,15.70
2022-11-03T11:30:07.365Z,15.40
2022-11-03T11:32:36.738Z,15.53
2022-11-03T11:35:03.242Z,15.35
2022-11-03T11:37:29.509Z,15.57
2022-11-03T11:39:55.881Z,15.56
2022-11-03T11:42:22.370Z,15.66
2022-11-03T11:44:53.881Z,15.71
2022-11-03T11:47:26.028Z,15.75
2022-11-03T11:50:07.610Z,15.85
2022-11-03T11:52:36.650Z,15.96
2022-11-03T11:55:03.849Z,16.21
2022-11-03T11:57:34.198Z,16.35
2022-11-03T12:00:00.690Z,16.65
2022-11-03T12:02:29.782Z,16.53
2022-11-03T12:05:02.889Z,16.77
2022-11-03T12:07:33.540Z,16.76
2022-11-03T12:10:09.695Z,16.84
2022-11-03T12:12:36.246Z,17.11
2022-11-03T12:15:02.618Z,17.02
2022-11-03T12:17:28.876Z,16.75
2022-11-03T12:19:55.553Z,16.78
2022-11-03T12:22:24.883Z,16.57
2022-11-03T12:25:15.531Z,16.81
2022-11-03T12:27:43.045Z,16.79
2022-11-03T12:30:18.639Z,16.90
2022-11-03T12:32:46.086Z,16.89
2022-11-03T12:35:13.613Z,16.83
2022-11-03T12:37:40.903Z,16.72
2022-11-03T12:40:07.864Z,16.72
2022-11-03T12:42:35.025Z,16.52
2022-11-03T12:45:01.460Z,16.91
2022-11-03T12:47:27.883Z,17.09
2022-11-03T12:49:54.311Z,17.24
2022-11-03T12:52:20.683Z,17.34
2022-11-03T12:54:47.047Z,17.25
2022-11-03T12:57:13.859Z,17.20
2022-11-03T12:59:40.558Z,17.20
2022-11-03T13:02:08.772Z,17.05
2022-11-03T13:04:35.262Z,16.89
2022-11-03T13:07:01.644Z,16.83
2022-11-03T13:09:27.994Z,16.89
2022-11-03T13:12:12.892Z,17.25
2022-11-03T13:14:42.039Z,17.30
2022-11-03T13:17:10.722Z,17.28
2022-11-03T13:19:37.146Z,17.16
2022-11-03T13:22:03.632Z,16.96
2022-11-03T13:24:29.997Z,17.02
2022-11-03T13:26:56.349Z,17.03
2022-11-03T13:29:22.750Z,16.71
2022-11-03T13:31:49.121Z,16.76
2022-11-03T13:34:15.530Z,16.47
2022-11-03T13:36:41.946Z,16.54
2022-11-03T13:39:08.304Z,16.62
2022-11-03T13:41:34.661Z,16.43
2022-11-03T13:44:01.015Z,16.47
2022-11-03T13:46:27.396Z,16.44
2022-11-03T13:49:51.111Z,16.29
2022-11-03T13:51:40.444Z,16.13
2022-11-03T13:59:39.791Z,16.41
2022-11-03T14:04:53.227Z,16.15
2022-11-03T14:07:19.620Z,16.14
2022-11-03T14:09:46.047Z,16.26
2022-11-03T14:12:30.676Z,16.01
2022-11-03T14:15:06.140Z,15.92
2022-11-03T14:17:32.959Z,15.92
2022-11-03T14:20:04.251Z,15.93
2022-11-03T14:22:31.431Z,16.05
2022-11-03T14:24:57.880Z,16.03
2022-11-03T14:27:24.274Z,15.92
2022-11-03T14:29:50.769Z,15.95
2022-11-03T14:32:18.054Z,15.84
2022-11-03T14:34:44.573Z,16.09
2022-11-03T14:37:11.624Z,15.98
2022-11-03T14:39:38.260Z,15.95
2022-11-03T14:42:15.826Z,16.09
2022-11-03T14:44:43.607Z,16.00
2022-11-03T14:48:04.992Z,15.96
2022-11-03T14:50:31.537Z,15.83
2022-11-03T14:52:59.957Z,15.81
2022-11-03T14:55:26.644Z,15.77
2022-11-03T14:57:53.006Z,15.90
2022-11-03T15:00:20.201Z,15.71
2022-11-03T15:02:46.550Z,15.90
2022-11-03T15:05:32.867Z,15.80
2022-11-03T15:07:59.225Z,15.85
2022-11-03T15:10:25.679Z,15.82
2022-11-03T15:12:52.139Z,15.79
2022-11-03T15:15:18.534Z,15.70
2022-11-03T15:17:44.975Z,15.59
2022-11-03T15:20:11.485Z,15.88
2022-11-03T15:25:28.871Z,15.70
2022-11-03T15:28:00.284Z,15.71
2022-11-03T15:30:26.855Z,15.68
2022-11-03T15:32:53.298Z,15.63
2022-11-03T15:35:19.763Z,15.38
2022-11-03T15:37:46.254Z,15.46
2022-11-03T15:40:13.855Z,15.57
2022-11-03T15:42:40.473Z,15.57
2022-11-03T15:45:12.663Z,15.34
2022-11-03T15:47:39.121Z,15.34
2022-11-03T15:50:06.724Z,15.13
2022-11-03T15:52:33.135Z,15.29
2022-11-03T15:54:59.591Z,15.29
2022-11-03T15:57:26.363Z,15.43
2022-11-03T15:59:55.345Z,15.20
2022-11-03T16:05:10.680Z,14.82
2022-11-03T16:07:37.028Z,15.05
2022-11-03T16:10:03.685Z,15.15
2022-11-03T16:12:30.203Z,15.96
2022-11-03T16:14:56.974Z,15.85
2022-11-03T16:17:23.470Z,14.39
2022-11-03T16:19:50.304Z,14.10
2022-11-03T16:22:16.718Z,15.45
2022-11-03T16:24:46.289Z,15.77
2022-11-03T16:27:12.810Z,14.37
2022-11-03T16:29:39.157Z,14.05
2022-11-03T16:32:05.603Z,13.98
2022-11-03T16:34:32.024Z,13.81
2022-11-03T16:36:58.778Z,13.74
2022-11-03T16:39:25.156Z,13.64
2022-11-03T16:41:54.696Z,13.59
2022-11-03T16:44:21.483Z,13.31
2022-11-03T16:46:47.926Z,13.18
2022-11-03T16:49:14.341Z,12.95
2022-11-03T16:51:40.700Z,12.69
2022-11-03T16:54:07.466Z,12.58
2022-11-03T16:56:33.912Z,12.64
2022-11-03T16:59:00.321Z,12.63
2022-11-03T17:01:27.433Z,12.40
2022-11-03T17:03:53.993Z,12.40
2022-11-03T17:06:20.440Z,12.30
2022-11-03T17:08:52.937Z,12.28
2022-11-03T17:11:38.075Z,12.17
2022-11-03T17:14:05.736Z,12.22
2022-11-03T17:16:32.218Z,12.31
2022-11-03T17:18:58.581Z,12.31
2022-11-03T17:21:25.997Z,12.26
2022-11-03T17:23:52.746Z,12.28
2022-11-03T17:26:24.041Z,12.22
2022-11-03T17:28:50.429Z,12.27
2022-11-03T17:31:16.849Z,12.22
2022-11-03T17:33:43.342Z,12.21
2022-11-03T17:36:10.153Z,12.16
2022-11-03T17:38:38.439Z,12.26
2022-11-03T17:41:04.864Z,12.32
2022-11-03T17:43:31.278Z,12.27
2022-11-03T17:45:57.649Z,12.23
2022-11-03T17:48:24.216Z,12.35
2022-11-03T17:50:53.467Z,12.35
2022-11-03T17:53:24.520Z,12.29
2022-11-03T17:56:08.747Z,12.14
2022-11-03T17:58:44.802Z,12.19
2022-11-03T18:01:12.764Z,12.28
2022-11-03T18:03:40.517Z,12.21
2022-11-03T18:06:15.464Z,12.17
2022-11-03T18:08:41.881Z,12.11
2022-11-03T18:11:09.086Z,12.14
2022-11-03T18:13:35.507Z,12.15
2022-11-03T18:16:10.631Z,12.24
2022-11-03T18:18:43.414Z,12.09
2022-11-03T18:21:14.292Z,12.15
2022-11-03T18:23:40.678Z,12.12
2022-11-03T18:26:16.380Z,12.17
2022-11-03T18:28:42.751Z,12.19
2022-11-03T18:31:18.973Z,12.27
2022-11-03T18:33:45.825Z,12.24
2022-11-03T18:36:14.534Z,12.18
2022-11-03T18:38:42.467Z,12.22
2022-11-03T18:41:33.945Z,12.25
2022-11-03T18:44:00.799Z,12.39
2022-11-03T18:46:27.176Z,12.42
2022-11-03T18:48:53.594Z,12.33
2022-11-03T18:51:20.171Z,12.33
2022-11-03T18:53:46.638Z,12.39
2022-11-03T18:56:13.420Z,12.33
2022-11-03T18:58:39.932Z,12.31
2022-11-03T19:01:07.101Z,12.33
2022-11-03T19:03:34.581Z,12.25
2022-11-03T19:06:01.028Z,12.25
2022-11-03T19:08:32.061Z,12.27
2022-11-03T19:11:03.547Z,12.21
2022-11-03T19:13:34.610Z,12.29
2022-11-03T19:16:02.970Z,12.27
2022-11-03T19:18:33.510Z,12.25
2022-11-03T19:20:59.875Z,12.15
2022-11-03T19:23:26.271Z,12.25
2022-11-03T19:25:57.741Z,12.31
2022-11-03T19:28:24.880Z,12.25
2022-11-03T19:30:56.876Z,12.28
2022-11-03T19:33:25.599Z,12.36
2022-11-03T19:35:52.042Z,12.30
2022-11-03T19:38:19.021Z,12.36
2022-11-03T19:41:04.755Z,12.38
2022-11-03T19:43:34.619Z,12.28
2022-11-03T19:46:01.521Z,12.31
2022-11-03T19:48:31.907Z,12.28
2022-11-03T19:50:58.604Z,12.23
2022-11-03T19:53:27.528Z,12.11
2022-11-03T19:55:54.255Z,12.13
2022-11-03T19:58:23.325Z,12.10
2022-11-03T20:00:50.492Z,12.11
2022-11-03T20:03:17.229Z,12.04
2022-11-03T20:05:49.055Z,11.89
2022-11-03T20:08:19.077Z,11.94
2022-11-03T20:10:47.542Z,11.99
2022-11-03T20:13:15.920Z,11.91
2022-11-03T20:15:42.330Z,11.80
2022-11-03T20:18:11.885Z,11.78
2022-11-03T20:20:38.792Z,11.73
2022-11-03T20:23:06.669Z,11.76
2022-11-03T20:25:35.012Z,11.72
2022-11-03T20:28:27.411Z,11.77
2022-11-03T20:30:54.775Z,11.77
2022-11-03T20:33:22.981Z,11.79
2022-11-03T20:35:50.725Z,11.81
2022-11-03T20:38:21.613Z,11.80
2022-11-03T20:40:49.303Z,11.73
2022-11-03T20:43:22.297Z,11.79
2022-11-03T20:45:48.836Z,11.78
2022-11-03T20:48:15.368Z,11.83
2022-11-03T20:50:41.742Z,11.79
2022-11-03T20:53:16.370Z,11.80
2022-11-03T20:55:42.960Z,11.80
2022-11-03T20:58:11.970Z,11.73
2022-11-03T21:00:39.045Z,11.69
2022-11-03T21:06:16.550Z,11.81
2022-11-03T21:08:43.685Z,11.78
2022-11-03T21:11:24.051Z,11.70
2022-11-03T21:14:01.582Z,11.75
2022-11-03T21:16:48.524Z,11.75
2022-11-03T21:19:35.650Z,11.81
2022-11-03T21:22:02.172Z,11.75
2022-11-03T21:24:28.565Z,11.83
2022-11-03T21:26:54.952Z,11.87
2022-11-03T21:29:33.154Z,11.82
2022-11-03T21:32:10.548Z,11.73
2022-11-03T21:34:36.966Z,11.90
2022-11-03T21:37:03.741Z,11.82
2022-11-03T21:39:30.511Z,11.92
2022-11-03T21:42:16.116Z,11.91
2022-11-03T21:44:42.951Z,11.91
2022-11-03T21:47:11.114Z,11.83
2022-11-03T21:49:43.234Z,11.84
2022-11-03T21:52:11.608Z,11.94
2022-11-03T21:54:41.751Z,11.85
2022-11-03T21:57:10.374Z,11.95
2022-11-03T21:59:36.775Z,11.97
2022-11-03T22:02:04.525Z,11.84
2022-11-03T22:04:31.134Z,11.97
2022-11-03T22:06:58.447Z,11.99
2022-11-03T22:09:26.121Z,11.98
2022-11-03T22:11:53.195Z,12.04
2022-11-03T22:14:20.198Z,12.04
2022-11-03T22:16:47.160Z,11.97
2022-11-03T22:19:37.758Z,11.91
2022-11-03T22:22:30.543Z,11.99
2022-11-03T22:25:15.450Z,12.08
2022-11-03T22:27:41.998Z,11.99
2022-11-03T22:30:27.460Z,11.99
2022-11-03T22:32:55.349Z,11.98
2022-11-03T22:35:41.106Z,11.98
2022-11-03T22:38:17.823Z,11.90
2022-11-03T22:41:05.265Z,12.05
2022-11-03T22:43:50.406Z,12.05
2022-11-03T22:46:17.462Z,12.01
2022-11-03T22:48:44.199Z,12.01
2022-11-03T22:51:15.610Z,11.99
2022-11-03T22:54:01.132Z,11.88
2022-11-03T22:56:29.182Z,11.91
2022-11-03T22:58:55.929Z,11.94
2022-11-03T23:01:24.431Z,11.84
2022-11-03T23:03:50.930Z,11.94
2022-11-03T23:06:19.652Z,11.91
2022-11-03T23:08:47.281Z,11.95
2022-11-03T23:11:20.927Z,11.91
2022-11-03T23:13:52.799Z,11.98
2022-11-03T23:16:21.587Z,11.92
2022-11-03T23:19:07.166Z,11.93
2022-11-03T23:21:34.129Z,11.95
2022-11-03T23:24:19.606Z,11.93
2022-11-03T23:26:46.094Z,11.86
2022-11-03T23:29:13.404Z,11.77
2022-11-03T23:31:40.828Z,11.69
2022-11-03T23:34:07.982Z,11.70
2022-11-03T23:36:34.481Z,11.62
2022-11-03T23:39:01.283Z,11.58
2022-11-03T23:41:28.201Z,11.52
2022-11-03T23:43:55.001Z,11.46
2022-11-03T23:46:42.593Z,11.39
2022-11-03T23:49:08.993Z,11.20
2022-11-03T23:51:36.350Z,11.06
2022-11-03T23:54:04.030Z,11.10
2022-11-03T23:56:53.099Z,10.95
2022-11-03T23:59:19.554Z,10.99
